Latest Weather Observations for Nullarbor

IDS60801

Issued at 8:32 pm CDT Tuesday 27 January 2015 (issued every 30 minutes, with the page automatically refreshed every 10 minutes)

About weather observations | Map of weather stations | Latest weather observations for SA | Other Formats
Station Details ID: 018106 Name: NULLARBOR Lat: -31.45 Lon: 130.90 Height: 64.0 m
Data from the previous 72 hours. | See also: Recent months at Nullarbor
Date/Time
CDT
Temp
°C
App
Temp
°C
Dew
Point
Rel
Hum
%
Delta-T
°C
Wind Press
QNH
hPa
Press
MSL
hPa
Rain
since 9 am
mm
Dir
 
Spd
km/h
Gust
km/h
Spd
kts
Gust
kts
27/08:00pm 19.0 12.1 11.6 62 4.1 SE 39 52 21 28 1016.6 1016.4 0.0
27/07:30pm 19.3 11.6 11.6 61 4.2 SE 43 52 23 28 1016.4 1016.2 0.0
27/07:00pm 20.4 13.6 12.1 59 4.7 SE 39 54 21 29 1016.3 1016.1 0.0
27/06:30pm 20.7 13.1 11.9 57 4.9 SE 43 54 23 29 1016.3 1016.1 0.0
27/06:00pm 21.6 14.4 11.9 54 5.4 SE 41 56 22 30 1016.3 1016.1 0.0
27/05:30pm 21.4 13.6 11.7 54 5.4 SE 44 57 24 31 1016.3 1016.1 0.0
27/05:00pm 22.3 15.4 11.7 51 6.0 SE 39 50 21 27 1016.4 1016.2 0.0
27/04:30pm 21.8 15.6 11.5 52 5.7 SE 35 44 19 24 1016.6 1016.4 0.0
27/04:00pm 22.6 16.9 11.7 50 6.1 SSE 33 44 18 24 1016.5 1016.3 0.0
27/03:30pm 22.7 16.7 10.8 47 6.6 SSE 33 41 18 22 1016.8 1016.6 0.0
27/03:00pm 22.4 16.3 10.5 47 6.5 SSE 33 46 18 25 1016.8 1016.6 0.0
27/02:30pm 23.5 17.7 10.9 45 7.0 SSE 32 41 17 22 1017.2 1017.0 0.0
27/02:00pm 22.4 17.0 10.9 48 6.4 SSE 30 43 16 23 1017.7 1017.5 0.0
27/01:30pm 22.8 17.7 10.6 46 6.7 SE 28 43 15 23 1017.8 1017.6 0.0
27/01:00pm 22.3 17.3 11.1 49 6.2 SE 28 37 15 20 1018.2 1018.0 0.0
27/12:30pm 22.4 17.0 10.9 48 6.4 SE 30 39 16 21 1018.6 1018.4 0.0
27/12:00pm 21.8 16.4 10.9 50 6.0 ESE 30 43 16 23 1018.8 1018.6 0.0
27/11:30am 21.0 15.0 10.2 50 5.9 SE 32 46 17 25 1018.7 1018.5 0.0
27/11:00am 20.8 15.8 10.9 53 5.4 ESE 28 39 15 21 1019.0 1018.8 0.0
27/10:30am 20.1 15.1 11.1 56 4.9 ESE 28 37 15 20 1019.0 1018.8 0.0
27/10:00am 19.5 14.5 11.0 58 4.6 ESE 28 35 15 19 1019.1 1018.9 0.0
27/09:30am 19.4 14.1 11.2 59 4.5 ESE 30 37 16 20 1019.0 1018.8 0.0
27/09:00am 18.3 13.3 11.1 63 3.9 E 28 37 15 20 1018.9 1018.7 0.0
27/08:30am 17.1 12.7 11.6 70 3.0 E 26 33 14 18 1018.8 1018.6 0.0
27/08:00am 15.3 12.4 11.1 76 2.2 E 17 19 9 10 1018.5 1018.3 0.0
27/07:30am 14.4 11.3 10.4 77 2.1 E 17 20 9 11 1018.1 1017.9 0.0
27/07:00am 14.7 12.0 10.5 76 2.2 E 15 19 8 10 1018.0 1017.8 0.0
27/06:30am 15.5 12.5 10.5 72 2.6 E 17 20 9 11 1017.7 1017.5 0.0
27/06:00am 16.6 13.3 10.9 69 3.1 E 19 24 10 13 1017.4 1017.2 0.0
27/05:30am 16.7 13.7 10.8 68 3.2 E 17 20 9 11 1017.3 1017.1 0.0
27/05:00am 17.4 14.4 10.8 65 3.6 ESE 17 24 9 13 1017.2 1017.0 0.0
27/04:30am 17.6 13.6 10.5 63 3.8 ESE 22 28 12 15 1017.5 1017.3 0.0
27/04:00am 17.5 14.2 10.9 65 3.6 SE 19 22 10 12 1017.4 1017.2 0.0
27/03:30am 17.2 13.5 10.3 64 3.7 SE 20 28 11 15 1017.4 1017.2 0.0
27/03:00am 17.2 13.5 10.1 63 3.8 SE 20 26 11 14 1017.5 1017.3 0.0
27/02:30am 17.2 13.0 9.6 61 4.0 SE 22 32 12 17 1017.7 1017.5 0.0
27/02:00am 17.4 13.3 10.1 62 3.9 SE 22 30 12 16 1018.1 1017.9 0.0
27/01:30am 17.6 14.0 10.5 63 3.8 SE 20 28 11 15 1018.0 1017.8 0.0
27/01:00am 17.5 14.1 10.4 63 3.8 SE 19 26 10 14 1018.4 1018.2 0.0
27/12:30am 17.4 12.5 9.8 61 4.0 SE 26 33 14 18 1018.6 1018.4 0.0
27/12:00am 18.0 13.2 10.4 61 4.1 SE 26 33 14 18 1018.7 1018.5 0.0
 
Date/Time
CDT
Temp
°C
App
Temp
°C
Dew
Point
Rel
Hum
%
Delta-T
°C
Wind Press
QNH
hPa
Press
MSL
hPa
Rain
since 9 am
mm
Dir
 
Spd
km/h
Gust
km/h
Spd
kts
Gust
kts
26/11:30pm 17.9 13.5 10.5 62 4.0 SE 24 33 13 18 1019.0 1018.8 0.0
26/11:00pm 17.2 12.5 9.4 60 4.1 SE 24 32 13 17 1019.2 1019.0 0.0
26/10:30pm 17.2 12.5 9.4 60 4.1 SE 24 32 13 17 1019.1 1018.9 0.0
26/10:00pm 17.3 12.7 9.5 60 4.1 SE 24 30 13 16 1018.9 1018.7 0.0
26/09:30pm 17.6 11.9 9.8 60 4.1 SE 30 37 16 20 1018.6 1018.4 0.0
26/09:00pm 17.8 12.5 9.9 60 4.2 SE 28 37 15 20 1018.5 1018.3 0.0
26/08:30pm 18.5 11.8 9.8 57 4.6 SE 35 44 19 24 1018.2 1018.0 0.0
26/08:00pm 19.2 12.4 9.4 53 5.2 SSE 35 44 19 24 1018.1 1017.9 0.0
26/07:30pm 19.5 12.3 10.5 56 4.9 SE 39 46 21 25 1017.9 1017.7 0.0
26/07:00pm 19.9 12.7 9.2 50 5.7 SE 37 46 20 25 1017.7 1017.5 0.0
26/06:30pm 20.6 13.9 9.8 50 5.8 SSE 35 44 19 24 1017.8 1017.6 0.0
26/06:00pm 20.9 14.2 9.8 49 6.0 SSE 35 46 19 25 1017.8 1017.6 0.0
26/05:30pm 21.7 15.0 8.2 42 7.1 SSE 33 44 18 24 1017.9 1017.7 0.0
26/05:00pm 22.2 15.3 8.7 42 7.2 SSE 35 44 19 24 1018.0 1017.8 0.0
26/04:30pm 22.0 15.4 7.8 40 7.4 SSE 32 44 17 24 1018.2 1018.0 0.0
26/04:00pm 22.5 16.3 9.3 43 7.1 SSE 32 46 17 25 1018.4 1018.2 0.0
26/03:30pm 21.8 15.7 8.3 42 7.1 SSE 30 43 16 23 1018.5 1018.3 0.0
26/03:00pm 22.3 16.2 8.4 41 7.3 SSE 30 41 16 22 1018.6 1018.4 0.0
26/02:30pm 21.3 16.3 7.9 42 7.0 SSE 24 37 13 20 1019.1 1018.9 0.0
26/02:00pm 22.2 17.4 8.7 42 7.2 SE 24 35 13 19 1019.4 1019.2 0.0
26/01:30pm 20.7 15.2 9.0 47 6.2 SE 28 39 15 21 1019.5 1019.3 0.0
26/01:00pm 20.8 15.6 8.8 46 6.3 SE 26 33 14 18 1019.7 1019.5 0.0
26/12:30pm 20.9 15.5 9.5 48 6.1 SE 28 41 15 22 1019.8 1019.6 0.0
26/12:00pm 20.9 14.7 9.5 48 6.1 SE 32 44 17 24 1019.9 1019.7 0.0
26/11:30am 19.9 14.6 10.0 53 5.3 SE 28 39 15 21 1019.9 1019.7 0.0
26/11:00am 19.9 15.3 9.5 51 5.5 SE 24 35 13 19 1019.9 1019.7 0.0
26/10:30am 19.4 14.2 8.7 50 5.6 SE 26 37 14 20 1019.9 1019.7 0.0
26/10:00am 19.6 14.3 8.6 49 5.8 SE 26 35 14 19 1019.9 1019.7 0.0
26/09:30am 19.0 14.1 8.6 51 5.4 SE 24 33 13 18 1019.7 1019.5 0.0
26/09:00am 18.6 13.4 8.8 53 5.1 SE 26 32 14 17 1019.5 1019.3 0.0
26/08:30am 18.2 14.0 9.8 58 4.4 SE 22 30 12 16 1019.2 1019.0 0.0
26/08:00am 17.9 14.6 7.9 52 5.1 SE 15 20 8 11 1019.0 1018.8 0.0
26/07:30am 17.5 14.0 7.0 50 5.2 ESE 15 20 8 11 1018.8 1018.6 0.0
26/07:00am 17.4 13.0 6.6 49 5.4 SE 19 26 10 14 1018.6 1018.4 0.0
26/06:30am 17.5 13.6 7.3 51 5.1 SE 17 24 9 13 1018.3 1018.1 0.0
26/06:00am 17.5 13.1 7.3 51 5.1 SE 20 32 11 17 1018.1 1017.9 0.0
26/05:30am 17.6 12.7 6.8 49 5.4 SSE 22 28 12 15 1018.2 1018.0 0.0
26/05:00am 17.7 13.4 7.2 50 5.3 SSE 19 26 10 14 1018.0 1017.8 0.0
26/04:30am 17.3 13.3 6.5 49 5.3 SSE 17 24 9 13 1017.8 1017.6 0.0
26/04:00am 17.5 13.1 6.7 49 5.4 SE 19 22 10 12 1017.8 1017.6 0.0
26/03:30am 17.5 13.9 6.7 49 5.4 SSE 15 19 8 10 1017.9 1017.7 0.0
26/03:00am 17.5 12.9 6.7 49 5.4 SSE 20 28 11 15 1017.8 1017.6 0.0
26/02:30am 17.7 13.0 7.7 52 5.1 SSE 22 28 12 15 1018.1 1017.9 0.0
26/02:00am 17.7 13.6 7.7 52 5.1 SE 19 26 10 14 1018.1 1017.9 0.0
26/01:30am 17.7 12.9 7.4 51 5.2 SE 22 28 12 15 1018.3 1018.1 0.0
26/01:00am 17.8 13.7 7.8 52 5.1 SE 19 26 10 14 1018.4 1018.2 0.0
26/12:30am 17.3 13.7 8.2 55 4.6 SSE 17 22 9 12 1018.6 1018.4 0.0
26/12:00am 17.3 12.8 7.1 51 5.1 SSE 20 24 11 13 1018.9 1018.7 0.0
 
Date/Time
CDT
Temp
°C
App
Temp
°C
Dew
Point
Rel
Hum
%
Delta-T
°C
Wind Press
QNH
hPa
Press
MSL
hPa
Rain
since 9 am
mm
Dir
 
Spd
km/h
Gust
km/h
Spd
kts
Gust
kts
25/11:30pm 17.3 13.8 8.7 57 4.4 SSE 17 22 9 12 1019.0 1018.8 0.0
25/11:00pm 17.4 13.4 9.1 58 4.3 SE 20 28 11 15 1019.0 1018.8 0.0
25/10:30pm 17.9 13.3 9.5 58 4.4 SSE 24 32 13 17 1019.0 1018.8 0.0
25/10:00pm 18.0 13.4 9.6 58 4.4 SSE 24 32 13 17 1018.8 1018.6 0.0
25/09:30pm 18.0 13.3 9.4 57 4.5 SSE 24 32 13 17 1018.7 1018.5 0.0
25/09:00pm 18.3 14.1 9.6 57 4.6 SSE 22 32 12 17 1018.4 1018.2 0.0
25/08:30pm 18.6 14.3 9.4 55 4.8 SE 22 30 12 16 1018.2 1018.0 0.0
25/08:00pm 19.0 14.4 9.5 54 5.0 SE 24 33 13 18 1018.0 1017.8 0.0
25/07:30pm 19.5 14.5 9.4 52 5.3 SSE 26 33 14 18 1017.6 1017.4 0.0
25/07:00pm 19.8 14.1 8.5 48 5.9 SSE 28 35 15 19 1017.4 1017.2 0.0
25/06:30pm 20.1 14.3 8.1 46 6.2 S 28 43 15 23 1017.3 1017.1 0.0
25/06:00pm 20.4 14.9 7.7 44 6.5 S 26 37 14 20 1017.5 1017.3 0.0
25/05:30pm 21.2 15.9 8.5 44 6.7 S 26 33 14 18 1017.5 1017.3 0.0
25/05:00pm 21.9 16.4 9.1 44 6.8 S 28 41 15 22 1017.4 1017.2 0.0
25/04:30pm 21.3 15.7 8.9 45 6.6 S 28 43 15 23 1017.4 1017.2 0.0
25/04:00pm 22.5 17.0 9.3 43 7.1 SSE 28 37 15 20 1017.3 1017.1 0.0
25/03:30pm 21.8 16.3 9.3 45 6.7 SSE 28 39 15 21 1017.4 1017.2 0.0
25/03:00pm 23.4 19.0 10.5 44 7.1 S 24 39 13 21 1017.4 1017.2 0.0
25/02:30pm 21.5 16.6 10.0 48 6.2 SSE 26 39 14 21 1017.7 1017.5 0.0
25/02:00pm 21.8 16.9 10.0 47 6.4 S 26 33 14 18 1017.8 1017.6 0.0
25/01:30pm 21.7 16.7 9.6 46 6.5 S 26 39 14 21 1017.8 1017.6 0.0
25/01:00pm 23.0 18.7 9.4 42 7.4 SSE 22 35 12 19 1017.8 1017.6 0.0
25/12:30pm 21.7 17.0 9.3 45 6.6 S 24 35 13 19 1017.9 1017.7 0.0
25/12:00pm 22.7 18.5 9.8 44 7.0 SSE 22 32 12 17 1017.6 1017.4 0.0
25/11:30am 21.4 16.7 9.3 46 6.5 SSE 24 41 13 22 1017.4 1017.2 0.0
25/11:00am 21.1 16.7 10.3 50 5.9 SSE 24 35 13 19 1017.2 1017.0 0.0
25/10:30am 20.6 15.5 10.7 53 5.4 SSE 28 39 15 21 1017.0 1016.8 0.0
25/10:00am 20.1 15.5 12.3 61 4.4 SSE 28 37 15 20 1016.9 1016.7 0.0
25/09:30am 19.5 15.1 11.8 61 4.3 SE 26 33 14 18 1016.9 1016.7 0.0
25/09:00am 20.0 16.4 11.7 59 4.6 SSE 22 30 12 16 1016.6 1016.4 0.2
25/08:30am 19.0 15.4 11.8 63 4.0 SSE 22 28 12 15 1016.6 1016.4 0.2
25/08:00am 18.2 15.9 12.9 71 3.0 SE 17 22 9 12 1016.1 1015.9 0.2
25/07:30am 16.8 15.2 12.9 78 2.2 SSE 13 19 7 10 1015.6 1015.4 0.2
25/07:00am 16.4 15.0 12.2 76 2.3 SSE 11 13 6 7 1015.3 1015.1 0.2
25/06:30am 17.5 16.3 12.8 74 2.6 S 11 13 6 7 1015.3 1015.1 0.2
25/06:00am 17.6 16.5 13.1 75 2.5 S 11 15 6 8 1015.0 1014.8 0.2
25/05:30am 16.9 15.9 13.4 80 2.0 S 11 13 6 7 1014.7 1014.5 0.2
25/05:00am 17.5 17.3 13.0 75 2.5 S 6 9 3 5 1014.7 1014.5 0.2
25/04:30am 17.7 17.0 13.2 75 2.5 S 9 11 5 6 1014.4 1014.1 0.2
25/04:00am 17.9 16.8 13.2 74 2.7 S 11 15 6 8 1014.4 1014.1 0.2
25/03:30am 18.4 17.1 13.7 74 2.7 S 13 15 7 8 1014.4 1014.1 0.2
25/03:00am 18.4 17.0 13.5 73 2.8 S 13 19 7 10 1014.6 1014.4 0.2
25/02:30am 18.2 15.6 13.7 75 2.6 S 20 26 11 14 1014.6 1014.4 0.2
25/02:00am 18.2 15.5 14.7 80 2.0 S 22 32 12 17 1014.7 1014.5 0.2
25/01:30am 19.3 18.2 13.0 67 3.6 S 11 15 6 8 1014.8 1014.6 0.0
25/01:00am 19.4 17.8 12.9 66 3.7 S 13 17 7 9 1015.0 1014.8 0.0
25/12:30am 19.4 17.0 13.8 70 3.2 S 19 24 10 13 1015.2 1015.0 0.0
25/12:00am 19.5 17.4 13.7 69 3.3 S 17 24 9 13 1015.4 1015.2 0.0
 
Date/Time
CDT
Temp
°C
App
Temp
°C
Dew
Point
Rel
Hum
%
Delta-T
°C
Wind Press
QNH
hPa
Press
MSL
hPa
Rain
since 9 am
mm
Dir
 
Spd
km/h
Gust
km/h
Spd
kts
Gust
kts
24/11:30pm 19.4 16.8 13.3 68 3.5 S 19 24 10 13 1015.5 1015.3 0.0
24/11:00pm 19.4 16.9 14.2 72 3.0 SSW 20 32 11 17 1015.4 1015.2 0.0
24/10:30pm 18.3 16.6 12.5 69 3.2 SSW 13 17 7 9 1015.0 1014.8 0.0
24/10:00pm 18.9 16.0 12.4 66 3.6 SSW 19 22 10 12 1014.6 1014.4 0.0
24/09:30pm 19.4 16.4 12.7 65 3.8 SSW 20 28 11 15 1014.3 1014.0 0.0
24/09:00pm 20.0 16.8 13.2 65 3.9 SSW 22 32 12 17 1014.0 1013.7 0.0

Other Formats:

Comma delimited format used in spreadsheet applications
http://www.bom.gov.au/fwo/IDS60801/IDS60801.94651.axf

JavaScript Object Notation format (JSON) in row-major order
http://www.bom.gov.au/fwo/IDS60801/IDS60801.94651.json